NOAA Weather Radio

Lightning Safety

Turn Around Don't Drown
Storm Ready
SkyWarn
WACO REGIONAL AIRPORT, TX, United States (KACT) 31-36N 97-13W 151M
Jul 26, 2014 - 02:51 PM EDT / 2014.07.26 1851 UTC
Wind: from the S (170 degrees) at 13 MPH (11 KT) gusting to 23 MPH (20 KT):0
Visibility: 10 mile(s):0
Sky conditions: clear
Temperature: 97.0 F (36.1 C)
Heat index: 102.2 F (39.0 C):1
Dew Point: 68.0 F (20.0 C)
Relative Humidity: 39%
Pressure (altimeter): 29.98 in. Hg (1015 hPa)
ob: KACT 261851Z 17011G20KT 10SM CLR 36/20 A2998 RMK AO2 SLP144 T03610200
cycle: 19